sensor_id;sensor_type;location;lat;lon;timestamp;P1;durP1;ratioP1;P2;durP2;ratioP2
4827;SDS011;2428;48.732;9.148;2023-05-16T00:01:15;4.77;;;4.37;;
4827;SDS011;2428;48.732;9.148;2023-05-16T00:03:41;4.90;;;4.13;;
4827;SDS011;2428;48.732;9.148;2023-05-16T00:06:07;4.90;;;4.40;;
4827;SDS011;2428;48.732;9.148;2023-05-16T00:08:33;4.50;;;4.10;;
4827;SDS011;2428;48.732;9.148;2023-05-16T00:10:59;4.37;;;3.97;;
4827;SDS011;2428;48.732;9.148;2023-05-16T00:13:25;6.20;;;4.93;;
4827;SDS011;2428;48.732;9.148;2023-05-16T00:15:52;5.27;;;4.17;;
4827;SDS011;2428;48.732;9.148;2023-05-16T00:18:18;6.03;;;5.17;;
4827;SDS011;2428;48.732;9.148;2023-05-16T00:20:46;6.30;;;5.23;;
4827;SDS011;2428;48.732;9.148;2023-05-16T00:23:13;5.27;;;4.00;;
4827;SDS011;2428;48.732;9.148;2023-05-16T00:25:38;7.23;;;4.93;;
4827;SDS011;2428;48.732;9.148;2023-05-16T00:28:04;7.73;;;5.33;;
4827;SDS011;2428;48.732;9.148;2023-05-16T00:30:30;6.83;;;5.50;;
4827;SDS011;2428;48.732;9.148;2023-05-16T00:32:56;5.00;;;4.40;;
4827;SDS011;2428;48.732;9.148;2023-05-16T00:35:22;6.43;;;5.80;;
4827;SDS011;2428;48.732;9.148;2023-05-16T00:37:48;7.00;;;5.20;;
4827;SDS011;2428;48.732;9.148;2023-05-16T00:40:14;6.10;;;5.53;;
4827;SDS011;2428;48.732;9.148;2023-05-16T00:42:40;6.47;;;5.70;;
4827;SDS011;2428;48.732;9.148;2023-05-16T00:45:06;8.30;;;5.23;;
4827;SDS011;2428;48.732;9.148;2023-05-16T00:47:32;10.60;;;7.10;;
4827;SDS011;2428;48.732;9.148;2023-05-16T00:49:59;10.83;;;7.37;;
4827;SDS011;2428;48.732;9.148;2023-05-16T00:52:25;7.40;;;6.23;;
4827;SDS011;2428;48.732;9.148;2023-05-16T00:54:50;9.90;;;5.80;;
4827;SDS011;2428;48.732;9.148;2023-05-16T00:57:17;8.10;;;5.40;;
4827;SDS011;2428;48.732;9.148;2023-05-16T00:59:44;9.90;;;6.57;;
4827;SDS011;2428;48.732;9.148;2023-05-16T01:02:11;13.10;;;7.23;;
4827;SDS011;2428;48.732;9.148;2023-05-16T01:04:37;8.80;;;6.70;;
4827;SDS011;2428;48.732;9.148;2023-05-16T01:07:04;10.63;;;7.73;;
4827;SDS011;2428;48.732;9.148;2023-05-16T01:09:30;14.80;;;6.67;;
4827;SDS011;2428;48.732;9.148;2023-05-16T01:14:55;7.40;;;6.53;;
4827;SDS011;2428;48.732;9.148;2023-05-16T01:28:02;11.10;;;7.43;;
4827;SDS011;2428;48.732;9.148;2023-05-16T01:30:34;11.77;;;6.80;;
4827;SDS011;2428;48.732;9.148;2023-05-16T01:33:03;15.10;;;7.80;;
4827;SDS011;2428;48.732;9.148;2023-05-16T01:35:29;13.73;;;8.80;;
4827;SDS011;2428;48.732;9.148;2023-05-16T01:38:13;11.97;;;8.17;;
4827;SDS011;2428;48.732;9.148;2023-05-16T01:43:33;9.40;;;6.70;;
4827;SDS011;2428;48.732;9.148;2023-05-16T01:46:10;11.07;;;7.83;;
4827;SDS011;2428;48.732;9.148;2023-05-16T01:48:42;11.93;;;8.40;;
4827;SDS011;2428;48.732;9.148;2023-05-16T01:51:13;8.70;;;7.20;;
4827;SDS011;2428;48.732;9.148;2023-05-16T01:53:40;12.87;;;8.47;;
4827;SDS011;2428;48.732;9.148;2023-05-16T01:56:09;15.33;;;8.10;;
4827;SDS011;2428;48.732;9.148;2023-05-16T01:58:39;15.43;;;11.03;;
4827;SDS011;2428;48.732;9.148;2023-05-16T02:01:05;17.33;;;10.07;;
4827;SDS011;2428;48.732;9.148;2023-05-16T02:03:31;14.97;;;9.77;;
4827;SDS011;2428;48.732;9.148;2023-05-16T02:05:57;10.43;;;7.00;;
4827;SDS011;2428;48.732;9.148;2023-05-16T02:08:24;16.87;;;8.80;;
4827;SDS011;2428;48.732;9.148;2023-05-16T02:10:50;11.43;;;7.90;;
4827;SDS011;2428;48.732;9.148;2023-05-16T02:13:17;16.00;;;9.77;;
4827;SDS011;2428;48.732;9.148;2023-05-16T02:15:43;16.57;;;9.60;;
4827;SDS011;2428;48.732;9.148;2023-05-16T02:18:09;12.67;;;9.67;;
4827;SDS011;2428;48.732;9.148;2023-05-16T02:20:35;11.40;;;7.70;;
4827;SDS011;2428;48.732;9.148;2023-05-16T02:23:00;15.63;;;8.97;;
4827;SDS011;2428;48.732;9.148;2023-05-16T02:27:53;10.30;;;7.40;;
4827;SDS011;2428;48.732;9.148;2023-05-16T02:30:18;19.73;;;9.73;;
4827;SDS011;2428;48.732;9.148;2023-05-16T02:32:44;15.13;;;8.10;;
4827;SDS011;2428;48.732;9.148;2023-05-16T02:35:10;12.67;;;7.67;;
4827;SDS011;2428;48.732;9.148;2023-05-16T02:37:36;8.40;;;6.90;;
4827;SDS011;2428;48.732;9.148;2023-05-16T02:40:02;14.87;;;8.73;;
4827;SDS011;2428;48.732;9.148;2023-05-16T02:42:31;12.67;;;7.17;;
4827;SDS011;2428;48.732;9.148;2023-05-16T02:44:57;12.13;;;7.97;;
4827;SDS011;2428;48.732;9.148;2023-05-16T02:47:23;20.40;;;9.80;;
4827;SDS011;2428;48.732;9.148;2023-05-16T02:49:49;12.47;;;9.77;;
4827;SDS011;2428;48.732;9.148;2023-05-16T02:52:16;13.90;;;8.93;;
4827;SDS011;2428;48.732;9.148;2023-05-16T02:54:42;15.03;;;8.57;;
4827;SDS011;2428;48.732;9.148;2023-05-16T02:57:08;13.97;;;6.23;;
4827;SDS011;2428;48.732;9.148;2023-05-16T02:59:33;13.00;;;8.13;;
4827;SDS011;2428;48.732;9.148;2023-05-16T03:02:00;13.53;;;8.07;;
4827;SDS011;2428;48.732;9.148;2023-05-16T03:04:26;14.20;;;7.13;;
4827;SDS011;2428;48.732;9.148;2023-05-16T03:06:51;13.70;;;9.53;;
4827;SDS011;2428;48.732;9.148;2023-05-16T03:09:17;13.50;;;8.90;;
4827;SDS011;2428;48.732;9.148;2023-05-16T03:11:43;15.97;;;9.30;;
4827;SDS011;2428;48.732;9.148;2023-05-16T03:14:09;18.70;;;8.60;;
4827;SDS011;2428;48.732;9.148;2023-05-16T03:16:36;14.50;;;8.50;;
4827;SDS011;2428;48.732;9.148;2023-05-16T03:19:02;17.43;;;8.90;;
4827;SDS011;2428;48.732;9.148;2023-05-16T03:21:28;15.90;;;8.37;;
4827;SDS011;2428;48.732;9.148;2023-05-16T03:23:55;15.40;;;7.47;;
4827;SDS011;2428;48.732;9.148;2023-05-16T03:26:21;18.10;;;8.03;;
4827;SDS011;2428;48.732;9.148;2023-05-16T03:28:47;14.80;;;8.80;;
4827;SDS011;2428;48.732;9.148;2023-05-16T03:31:12;18.27;;;10.10;;
4827;SDS011;2428;48.732;9.148;2023-05-16T03:33:38;12.83;;;8.03;;
4827;SDS011;2428;48.732;9.148;2023-05-16T03:36:03;19.37;;;9.37;;
4827;SDS011;2428;48.732;9.148;2023-05-16T03:38:29;18.97;;;10.20;;
4827;SDS011;2428;48.732;9.148;2023-05-16T03:40:55;18.37;;;9.50;;
4827;SDS011;2428;48.732;9.148;2023-05-16T03:43:20;21.27;;;12.10;;
4827;SDS011;2428;48.732;9.148;2023-05-16T03:45:46;16.83;;;9.70;;
4827;SDS011;2428;48.732;9.148;2023-05-16T03:48:12;14.90;;;9.20;;
4827;SDS011;2428;48.732;9.148;2023-05-16T03:50:37;20.07;;;10.57;;
4827;SDS011;2428;48.732;9.148;2023-05-16T03:53:03;12.90;;;9.53;;
4827;SDS011;2428;48.732;9.148;2023-05-16T03:55:29;21.87;;;12.07;;
4827;SDS011;2428;48.732;9.148;2023-05-16T03:57:55;20.00;;;9.53;;
4827;SDS011;2428;48.732;9.148;2023-05-16T04:00:21;15.23;;;10.53;;
4827;SDS011;2428;48.732;9.148;2023-05-16T04:02:46;17.10;;;9.27;;
4827;SDS011;2428;48.732;9.148;2023-05-16T04:05:12;15.73;;;9.50;;
4827;SDS011;2428;48.732;9.148;2023-05-16T04:07:38;14.90;;;8.70;;
4827;SDS011;2428;48.732;9.148;2023-05-16T04:10:04;21.43;;;10.40;;
4827;SDS011;2428;48.732;9.148;2023-05-16T04:12:30;21.70;;;12.50;;
4827;SDS011;2428;48.732;9.148;2023-05-16T04:14:56;15.63;;;8.30;;
4827;SDS011;2428;48.732;9.148;2023-05-16T04:17:21;17.73;;;9.47;;
4827;SDS011;2428;48.732;9.148;2023-05-16T04:19:47;19.47;;;10.03;;
4827;SDS011;2428;48.732;9.148;2023-05-16T04:22:12;18.27;;;10.10;;
4827;SDS011;2428;48.732;9.148;2023-05-16T04:24:38;19.30;;;9.97;;
4827;SDS011;2428;48.732;9.148;2023-05-16T04:27:04;20.87;;;9.40;;
4827;SDS011;2428;48.732;9.148;2023-05-16T04:29:32;16.57;;;7.77;;
4827;SDS011;2428;48.732;9.148;2023-05-16T04:31:58;27.10;;;12.20;;
4827;SDS011;2428;48.732;9.148;2023-05-16T04:34:24;18.63;;;10.63;;
4827;SDS011;2428;48.732;9.148;2023-05-16T04:36:52;13.30;;;9.40;;
4827;SDS011;2428;48.732;9.148;2023-05-16T04:39:18;17.93;;;8.10;;
4827;SDS011;2428;48.732;9.148;2023-05-16T04:41:43;16.20;;;10.03;;
4827;SDS011;2428;48.732;9.148;2023-05-16T04:44:09;20.97;;;9.93;;
4827;SDS011;2428;48.732;9.148;2023-05-16T04:46:35;13.87;;;8.57;;
4827;SDS011;2428;48.732;9.148;2023-05-16T04:49:01;17.30;;;10.53;;
4827;SDS011;2428;48.732;9.148;2023-05-16T04:51:27;21.73;;;11.97;;
4827;SDS011;2428;48.732;9.148;2023-05-16T04:53:52;20.43;;;10.60;;
4827;SDS011;2428;48.732;9.148;2023-05-16T04:56:18;19.97;;;12.30;;
4827;SDS011;2428;48.732;9.148;2023-05-16T04:58:44;18.27;;;8.47;;
4827;SDS011;2428;48.732;9.148;2023-05-16T05:01:10;18.63;;;11.90;;
4827;SDS011;2428;48.732;9.148;2023-05-16T05:03:35;24.73;;;12.80;;
4827;SDS011;2428;48.732;9.148;2023-05-16T05:06:01;15.27;;;10.33;;
4827;SDS011;2428;48.732;9.148;2023-05-16T05:08:27;17.87;;;10.17;;
4827;SDS011;2428;48.732;9.148;2023-05-16T05:10:54;21.80;;;10.23;;
4827;SDS011;2428;48.732;9.148;2023-05-16T05:13:20;14.90;;;9.97;;
4827;SDS011;2428;48.732;9.148;2023-05-16T05:15:46;15.60;;;7.07;;
4827;SDS011;2428;48.732;9.148;2023-05-16T05:18:11;18.40;;;9.40;;
4827;SDS011;2428;48.732;9.148;2023-05-16T05:20:37;16.53;;;11.70;;
4827;SDS011;2428;48.732;9.148;2023-05-16T05:23:02;15.53;;;10.43;;
4827;SDS011;2428;48.732;9.148;2023-05-16T05:25:28;17.67;;;8.20;;
4827;SDS011;2428;48.732;9.148;2023-05-16T05:27:54;17.43;;;8.53;;
4827;SDS011;2428;48.732;9.148;2023-05-16T05:30:19;14.20;;;10.80;;
4827;SDS011;2428;48.732;9.148;2023-05-16T05:32:45;15.97;;;9.37;;
4827;SDS011;2428;48.732;9.148;2023-05-16T05:35:11;21.23;;;10.07;;
4827;SDS011;2428;48.732;9.148;2023-05-16T05:37:36;16.70;;;10.47;;
4827;SDS011;2428;48.732;9.148;2023-05-16T05:40:02;24.43;;;12.10;;
4827;SDS011;2428;48.732;9.148;2023-05-16T05:42:28;17.03;;;10.97;;
4827;SDS011;2428;48.732;9.148;2023-05-16T05:44:53;13.50;;;8.90;;
4827;SDS011;2428;48.732;9.148;2023-05-16T05:47:19;15.77;;;9.63;;
4827;SDS011;2428;48.732;9.148;2023-05-16T05:49:45;13.27;;;7.90;;
4827;SDS011;2428;48.732;9.148;2023-05-16T05:52:11;19.03;;;9.60;;
4827;SDS011;2428;48.732;9.148;2023-05-16T05:54:37;17.70;;;10.07;;
4827;SDS011;2428;48.732;9.148;2023-05-16T05:57:02;16.80;;;11.40;;
4827;SDS011;2428;48.732;9.148;2023-05-16T05:59:28;16.70;;;9.27;;
4827;SDS011;2428;48.732;9.148;2023-05-16T06:01:54;17.23;;;10.10;;
4827;SDS011;2428;48.732;9.148;2023-05-16T06:04:20;16.90;;;8.77;;
4827;SDS011;2428;48.732;9.148;2023-05-16T06:06:45;16.03;;;11.80;;
4827;SDS011;2428;48.732;9.148;2023-05-16T06:09:11;15.07;;;8.40;;
4827;SDS011;2428;48.732;9.148;2023-05-16T06:11:40;13.63;;;10.77;;
4827;SDS011;2428;48.732;9.148;2023-05-16T06:14:07;22.50;;;10.53;;
4827;SDS011;2428;48.732;9.148;2023-05-16T06:16:33;16.83;;;11.17;;
4827;SDS011;2428;48.732;9.148;2023-05-16T06:18:58;14.57;;;9.60;;
4827;SDS011;2428;48.732;9.148;2023-05-16T06:21:24;16.60;;;8.00;;
4827;SDS011;2428;48.732;9.148;2023-05-16T06:23:50;14.83;;;9.33;;
4827;SDS011;2428;48.732;9.148;2023-05-16T06:26:15;12.00;;;7.87;;
4827;SDS011;2428;48.732;9.148;2023-05-16T06:28:41;19.70;;;10.17;;
4827;SDS011;2428;48.732;9.148;2023-05-16T06:31:07;20.17;;;11.70;;
4827;SDS011;2428;48.732;9.148;2023-05-16T06:33:33;17.00;;;8.73;;
4827;SDS011;2428;48.732;9.148;2023-05-16T06:35:59;19.87;;;10.40;;
4827;SDS011;2428;48.732;9.148;2023-05-16T06:38:24;15.87;;;9.10;;
4827;SDS011;2428;48.732;9.148;2023-05-16T06:40:50;15.93;;;11.53;;
4827;SDS011;2428;48.732;9.148;2023-05-16T06:43:16;14.47;;;8.90;;
4827;SDS011;2428;48.732;9.148;2023-05-16T06:45:43;14.87;;;8.40;;
4827;SDS011;2428;48.732;9.148;2023-05-16T06:48:08;17.43;;;11.07;;
4827;SDS011;2428;48.732;9.148;2023-05-16T06:50:35;11.47;;;8.03;;
4827;SDS011;2428;48.732;9.148;2023-05-16T06:53:00;18.03;;;9.40;;
4827;SDS011;2428;48.732;9.148;2023-05-16T06:55:28;10.77;;;6.80;;
4827;SDS011;2428;48.732;9.148;2023-05-16T06:57:54;13.00;;;8.37;;
4827;SDS011;2428;48.732;9.148;2023-05-16T07:00:20;17.60;;;9.57;;
4827;SDS011;2428;48.732;9.148;2023-05-16T07:02:46;15.93;;;8.17;;
4827;SDS011;2428;48.732;9.148;2023-05-16T07:05:11;13.87;;;8.40;;
4827;SDS011;2428;48.732;9.148;2023-05-16T07:07:37;12.10;;;8.20;;
4827;SDS011;2428;48.732;9.148;2023-05-16T07:10:03;13.23;;;9.67;;
4827;SDS011;2428;48.732;9.148;2023-05-16T07:12:28;15.57;;;8.10;;
4827;SDS011;2428;48.732;9.148;2023-05-16T07:14:55;10.97;;;8.07;;
4827;SDS011;2428;48.732;9.148;2023-05-16T07:17:20;11.43;;;7.00;;
4827;SDS011;2428;48.732;9.148;2023-05-16T07:19:46;11.60;;;7.63;;
4827;SDS011;2428;48.732;9.148;2023-05-16T07:22:12;16.80;;;8.90;;
4827;SDS011;2428;48.732;9.148;2023-05-16T07:24:37;14.10;;;7.80;;
4827;SDS011;2428;48.732;9.148;2023-05-16T07:27:03;12.57;;;8.27;;
4827;SDS011;2428;48.732;9.148;2023-05-16T07:29:29;10.67;;;6.27;;
4827;SDS011;2428;48.732;9.148;2023-05-16T07:31:54;9.17;;;5.67;;
4827;SDS011;2428;48.732;9.148;2023-05-16T07:34:20;12.07;;;8.33;;
4827;SDS011;2428;48.732;9.148;2023-05-16T07:36:46;15.40;;;9.43;;
4827;SDS011;2428;48.732;9.148;2023-05-16T07:39:11;11.67;;;6.67;;
4827;SDS011;2428;48.732;9.148;2023-05-16T07:41:37;6.80;;;6.10;;
4827;SDS011;2428;48.732;9.148;2023-05-16T07:44:02;8.43;;;6.30;;
4827;SDS011;2428;48.732;9.148;2023-05-16T07:46:28;14.00;;;6.43;;
4827;SDS011;2428;48.732;9.148;2023-05-16T07:48:53;18.50;;;8.57;;
4827;SDS011;2428;48.732;9.148;2023-05-16T07:51:19;8.73;;;5.50;;
4827;SDS011;2428;48.732;9.148;2023-05-16T07:53:45;9.87;;;6.73;;
4827;SDS011;2428;48.732;9.148;2023-05-16T07:56:10;7.00;;;5.90;;
4827;SDS011;2428;48.732;9.148;2023-05-16T07:58:36;6.10;;;5.60;;
4827;SDS011;2428;48.732;9.148;2023-05-16T08:01:02;8.60;;;5.43;;
4827;SDS011;2428;48.732;9.148;2023-05-16T08:03:28;10.70;;;5.50;;
4827;SDS011;2428;48.732;9.148;2023-05-16T08:05:54;8.30;;;4.80;;
4827;SDS011;2428;48.732;9.148;2023-05-16T08:08:19;7.80;;;4.87;;
4827;SDS011;2428;48.732;9.148;2023-05-16T08:10:45;7.03;;;4.77;;
4827;SDS011;2428;48.732;9.148;2023-05-16T08:13:11;10.33;;;7.23;;
4827;SDS011;2428;48.732;9.148;2023-05-16T08:15:36;11.97;;;6.80;;
4827;SDS011;2428;48.732;9.148;2023-05-16T08:18:02;9.43;;;5.83;;
4827;SDS011;2428;48.732;9.148;2023-05-16T08:20:27;9.83;;;5.20;;
4827;SDS011;2428;48.732;9.148;2023-05-16T08:22:53;8.60;;;6.20;;
4827;SDS011;2428;48.732;9.148;2023-05-16T08:25:19;9.60;;;6.00;;
4827;SDS011;2428;48.732;9.148;2023-05-16T08:27:45;9.00;;;4.73;;
4827;SDS011;2428;48.732;9.148;2023-05-16T08:30:11;7.17;;;4.40;;
4827;SDS011;2428;48.732;9.148;2023-05-16T08:32:37;7.80;;;4.93;;
4827;SDS011;2428;48.732;9.148;2023-05-16T08:35:03;7.87;;;5.40;;
4827;SDS011;2428;48.732;9.148;2023-05-16T08:37:29;6.47;;;4.83;;
4827;SDS011;2428;48.732;9.148;2023-05-16T08:39:54;5.17;;;4.67;;
4827;SDS011;2428;48.732;9.148;2023-05-16T08:42:20;7.43;;;5.30;;
4827;SDS011;2428;48.732;9.148;2023-05-16T08:44:46;7.53;;;5.37;;
4827;SDS011;2428;48.732;9.148;2023-05-16T08:47:12;8.40;;;5.40;;
4827;SDS011;2428;48.732;9.148;2023-05-16T08:49:46;7.27;;;5.10;;
4827;SDS011;2428;48.732;9.148;2023-05-16T08:52:12;9.30;;;6.10;;
4827;SDS011;2428;48.732;9.148;2023-05-16T08:54:41;7.40;;;4.57;;
4827;SDS011;2428;48.732;9.148;2023-05-16T08:57:08;8.20;;;5.80;;
4827;SDS011;2428;48.732;9.148;2023-05-16T08:59:34;7.03;;;5.30;;
4827;SDS011;2428;48.732;9.148;2023-05-16T09:01:59;7.57;;;6.37;;
4827;SDS011;2428;48.732;9.148;2023-05-16T09:04:25;5.23;;;4.73;;
4827;SDS011;2428;48.732;9.148;2023-05-16T09:06:51;16.93;;;6.93;;
4827;SDS011;2428;48.732;9.148;2023-05-16T09:09:18;7.20;;;5.47;;
4827;SDS011;2428;48.732;9.148;2023-05-16T09:11:43;8.67;;;6.70;;
4827;SDS011;2428;48.732;9.148;2023-05-16T09:14:09;5.90;;;5.30;;
4827;SDS011;2428;48.732;9.148;2023-05-16T09:16:35;9.13;;;5.80;;
4827;SDS011;2428;48.732;9.148;2023-05-16T09:19:01;9.80;;;6.80;;
4827;SDS011;2428;48.732;9.148;2023-05-16T09:21:29;6.10;;;4.20;;
4827;SDS011;2428;48.732;9.148;2023-05-16T09:24:01;8.90;;;7.03;;
4827;SDS011;2428;48.732;9.148;2023-05-16T09:26:37;10.13;;;5.90;;
4827;SDS011;2428;48.732;9.148;2023-05-16T09:29:10;8.00;;;5.33;;
4827;SDS011;2428;48.732;9.148;2023-05-16T09:31:36;13.20;;;6.20;;
4827;SDS011;2428;48.732;9.148;2023-05-16T09:34:03;7.40;;;5.70;;
4827;SDS011;2428;48.732;9.148;2023-05-16T09:36:32;15.17;;;7.37;;
4827;SDS011;2428;48.732;9.148;2023-05-16T09:38:57;10.57;;;6.57;;
4827;SDS011;2428;48.732;9.148;2023-05-16T09:41:24;9.20;;;4.60;;
4827;SDS011;2428;48.732;9.148;2023-05-16T09:43:50;10.00;;;5.40;;
4827;SDS011;2428;48.732;9.148;2023-05-16T09:46:15;7.53;;;5.87;;
4827;SDS011;2428;48.732;9.148;2023-05-16T09:48:47;13.20;;;8.90;;
4827;SDS011;2428;48.732;9.148;2023-05-16T09:51:13;12.23;;;7.13;;
4827;SDS011;2428;48.732;9.148;2023-05-16T09:53:39;10.57;;;6.60;;
4827;SDS011;2428;48.732;9.148;2023-05-16T09:56:12;9.67;;;6.77;;
4827;SDS011;2428;48.732;9.148;2023-05-16T09:58:40;12.47;;;7.30;;
4827;SDS011;2428;48.732;9.148;2023-05-16T10:01:08;11.23;;;6.73;;
4827;SDS011;2428;48.732;9.148;2023-05-16T10:03:35;11.23;;;6.40;;
4827;SDS011;2428;48.732;9.148;2023-05-16T10:06:03;8.37;;;6.70;;
4827;SDS011;2428;48.732;9.148;2023-05-16T10:08:33;13.17;;;8.00;;
4827;SDS011;2428;48.732;9.148;2023-05-16T10:11:00;12.23;;;7.50;;
4827;SDS011;2428;48.732;9.148;2023-05-16T10:13:29;11.33;;;6.87;;
4827;SDS011;2428;48.732;9.148;2023-05-16T10:15:57;8.53;;;6.10;;
4827;SDS011;2428;48.732;9.148;2023-05-16T10:18:27;8.77;;;5.57;;
4827;SDS011;2428;48.732;9.148;2023-05-16T10:20:54;14.90;;;6.87;;
4827;SDS011;2428;48.732;9.148;2023-05-16T10:23:22;10.90;;;6.30;;
4827;SDS011;2428;48.732;9.148;2023-05-16T10:25:49;13.60;;;7.43;;
4827;SDS011;2428;48.732;9.148;2023-05-16T10:28:16;8.67;;;5.73;;
4827;SDS011;2428;48.732;9.148;2023-05-16T10:30:43;12.17;;;7.10;;
4827;SDS011;2428;48.732;9.148;2023-05-16T10:33:13;9.53;;;6.07;;
4827;SDS011;2428;48.732;9.148;2023-05-16T10:35:40;11.63;;;6.27;;
4827;SDS011;2428;48.732;9.148;2023-05-16T10:38:07;12.53;;;7.00;;
4827;SDS011;2428;48.732;9.148;2023-05-16T10:40:36;11.43;;;6.37;;
4827;SDS011;2428;48.732;9.148;2023-05-16T10:43:04;9.87;;;6.23;;
4827;SDS011;2428;48.732;9.148;2023-05-16T10:45:30;10.50;;;6.33;;
4827;SDS011;2428;48.732;9.148;2023-05-16T10:47:57;10.53;;;6.07;;
4827;SDS011;2428;48.732;9.148;2023-05-16T10:53:22;10.70;;;6.13;;
4827;SDS011;2428;48.732;9.148;2023-05-16T10:58:24;8.07;;;6.27;;
4827;SDS011;2428;48.732;9.148;2023-05-16T11:01:13;9.80;;;7.30;;
4827;SDS011;2428;48.732;9.148;2023-05-16T11:06:25;5.80;;;4.47;;
4827;SDS011;2428;48.732;9.148;2023-05-16T11:11:53;9.33;;;5.33;;
4827;SDS011;2428;48.732;9.148;2023-05-16T11:16:58;7.00;;;4.30;;
4827;SDS011;2428;48.732;9.148;2023-05-16T11:19:38;7.90;;;4.80;;
4827;SDS011;2428;48.732;9.148;2023-05-16T11:24:53;7.67;;;4.97;;
4827;SDS011;2428;48.732;9.148;2023-05-16T11:27:23;9.80;;;4.10;;
4827;SDS011;2428;48.732;9.148;2023-05-16T11:32:35;5.33;;;4.73;;
4827;SDS011;2428;48.732;9.148;2023-05-16T11:35:05;4.70;;;3.30;;
4827;SDS011;2428;48.732;9.148;2023-05-16T11:37:33;5.20;;;4.07;;
4827;SDS011;2428;48.732;9.148;2023-05-16T11:40:01;9.33;;;4.00;;
4827;SDS011;2428;48.732;9.148;2023-05-16T11:42:33;9.23;;;4.60;;
4827;SDS011;2428;48.732;9.148;2023-05-16T11:45:04;5.80;;;3.23;;
4827;SDS011;2428;48.732;9.148;2023-05-16T11:47:30;4.60;;;2.70;;
4827;SDS011;2428;48.732;9.148;2023-05-16T11:49:58;6.80;;;3.77;;
4827;SDS011;2428;48.732;9.148;2023-05-16T11:52:24;6.23;;;4.53;;
4827;SDS011;2428;48.732;9.148;2023-05-16T11:54:51;3.40;;;2.73;;
4827;SDS011;2428;48.732;9.148;2023-05-16T11:57:17;4.07;;;2.60;;
4827;SDS011;2428;48.732;9.148;2023-05-16T11:59:44;6.90;;;4.10;;
4827;SDS011;2428;48.732;9.148;2023-05-16T12:02:10;3.50;;;2.93;;
4827;SDS011;2428;48.732;9.148;2023-05-16T12:04:35;4.00;;;2.97;;
4827;SDS011;2428;48.732;9.148;2023-05-16T12:07:04;4.47;;;3.10;;
4827;SDS011;2428;48.732;9.148;2023-05-16T12:09:29;5.27;;;2.83;;
4827;SDS011;2428;48.732;9.148;2023-05-16T12:11:55;6.90;;;3.73;;
4827;SDS011;2428;48.732;9.148;2023-05-16T12:14:21;3.30;;;2.47;;
4827;SDS011;2428;48.732;9.148;2023-05-16T12:16:46;4.97;;;2.27;;
4827;SDS011;2428;48.732;9.148;2023-05-16T12:19:13;6.77;;;4.27;;
4827;SDS011;2428;48.732;9.148;2023-05-16T12:21:39;3.90;;;3.13;;
4827;SDS011;2428;48.732;9.148;2023-05-16T12:24:08;3.30;;;2.70;;
4827;SDS011;2428;48.732;9.148;2023-05-16T12:26:34;4.27;;;3.90;;
4827;SDS011;2428;48.732;9.148;2023-05-16T12:29:03;3.80;;;3.43;;
4827;SDS011;2428;48.732;9.148;2023-05-16T12:31:29;4.07;;;3.67;;
4827;SDS011;2428;48.732;9.148;2023-05-16T12:34:00;6.70;;;3.57;;
4827;SDS011;2428;48.732;9.148;2023-05-16T12:36:29;4.07;;;2.70;;
4827;SDS011;2428;48.732;9.148;2023-05-16T12:39:00;5.93;;;3.80;;
4827;SDS011;2428;48.732;9.148;2023-05-16T12:41:27;3.33;;;2.57;;
4827;SDS011;2428;48.732;9.148;2023-05-16T12:44:05;4.03;;;3.23;;
4827;SDS011;2428;48.732;9.148;2023-05-16T12:46:31;3.77;;;3.40;;
4827;SDS011;2428;48.732;9.148;2023-05-16T12:49:00;3.70;;;3.43;;
4827;SDS011;2428;48.732;9.148;2023-05-16T12:51:29;4.60;;;3.17;;
4827;SDS011;2428;48.732;9.148;2023-05-16T12:53:56;3.67;;;2.90;;
4827;SDS011;2428;48.732;9.148;2023-05-16T12:56:21;5.47;;;3.70;;
4827;SDS011;2428;48.732;9.148;2023-05-16T12:58:49;3.80;;;2.77;;
4827;SDS011;2428;48.732;9.148;2023-05-16T13:01:15;3.77;;;2.63;;
4827;SDS011;2428;48.732;9.148;2023-05-16T13:03:41;3.40;;;3.10;;
4827;SDS011;2428;48.732;9.148;2023-05-16T13:06:07;3.47;;;3.17;;
4827;SDS011;2428;48.732;9.148;2023-05-16T13:08:32;1.90;;;1.70;;
4827;SDS011;2428;48.732;9.148;2023-05-16T13:10:58;3.00;;;2.73;;
4827;SDS011;2428;48.732;9.148;2023-05-16T13:13:24;3.10;;;2.20;;
4827;SDS011;2428;48.732;9.148;2023-05-16T13:15:50;3.77;;;3.47;;
4827;SDS011;2428;48.732;9.148;2023-05-16T13:18:15;2.80;;;2.60;;
4827;SDS011;2428;48.732;9.148;2023-05-16T13:20:41;3.60;;;2.10;;
4827;SDS011;2428;48.732;9.148;2023-05-16T13:23:07;3.70;;;2.40;;
4827;SDS011;2428;48.732;9.148;2023-05-16T13:25:33;3.50;;;2.30;;
4827;SDS011;2428;48.732;9.148;2023-05-16T13:27:59;1.93;;;1.80;;
4827;SDS011;2428;48.732;9.148;2023-05-16T13:30:24;2.30;;;2.20;;
4827;SDS011;2428;48.732;9.148;2023-05-16T13:32:50;2.23;;;2.13;;
4827;SDS011;2428;48.732;9.148;2023-05-16T13:35:18;1.60;;;1.50;;
4827;SDS011;2428;48.732;9.148;2023-05-16T13:37:44;3.13;;;2.23;;
4827;SDS011;2428;48.732;9.148;2023-05-16T13:40:10;1.57;;;1.47;;
4827;SDS011;2428;48.732;9.148;2023-05-16T13:42:36;1.63;;;1.50;;
4827;SDS011;2428;48.732;9.148;2023-05-16T13:45:02;2.03;;;1.93;;
4827;SDS011;2428;48.732;9.148;2023-05-16T13:47:28;2.10;;;1.90;;
4827;SDS011;2428;48.732;9.148;2023-05-16T13:49:54;1.70;;;1.40;;
4827;SDS011;2428;48.732;9.148;2023-05-16T13:52:20;1.67;;;1.57;;
4827;SDS011;2428;48.732;9.148;2023-05-16T13:54:45;1.10;;;1.10;;
4827;SDS011;2428;48.732;9.148;2023-05-16T13:57:11;2.13;;;2.03;;
4827;SDS011;2428;48.732;9.148;2023-05-16T13:59:37;1.10;;;1.10;;
4827;SDS011;2428;48.732;9.148;2023-05-16T14:02:02;1.67;;;1.57;;
4827;SDS011;2428;48.732;9.148;2023-05-16T14:04:28;2.33;;;2.00;;
4827;SDS011;2428;48.732;9.148;2023-05-16T14:06:54;2.37;;;2.13;;
4827;SDS011;2428;48.732;9.148;2023-05-16T14:09:20;1.53;;;0.90;;
4827;SDS011;2428;48.732;9.148;2023-05-16T14:11:46;2.40;;;2.20;;
4827;SDS011;2428;48.732;9.148;2023-05-16T14:14:11;1.40;;;1.30;;
4827;SDS011;2428;48.732;9.148;2023-05-16T14:16:37;1.70;;;1.07;;
4827;SDS011;2428;48.732;9.148;2023-05-16T14:19:02;2.10;;;2.00;;
4827;SDS011;2428;48.732;9.148;2023-05-16T14:21:29;1.20;;;1.20;;
4827;SDS011;2428;48.732;9.148;2023-05-16T14:23:55;1.47;;;1.43;;
4827;SDS011;2428;48.732;9.148;2023-05-16T14:26:20;1.20;;;1.10;;
4827;SDS011;2428;48.732;9.148;2023-05-16T14:28:49;1.00;;;1.00;;
4827;SDS011;2428;48.732;9.148;2023-05-16T14:31:15;1.43;;;1.33;;
4827;SDS011;2428;48.732;9.148;2023-05-16T14:33:40;3.50;;;2.23;;
4827;SDS011;2428;48.732;9.148;2023-05-16T14:36:07;1.57;;;1.47;;
4827;SDS011;2428;48.732;9.148;2023-05-16T14:38:33;1.40;;;1.40;;
4827;SDS011;2428;48.732;9.148;2023-05-16T14:40:59;2.43;;;2.33;;
4827;SDS011;2428;48.732;9.148;2023-05-16T14:43:25;2.97;;;2.40;;
4827;SDS011;2428;48.732;9.148;2023-05-16T14:45:50;2.83;;;1.47;;
4827;SDS011;2428;48.732;9.148;2023-05-16T14:48:16;2.37;;;1.83;;
4827;SDS011;2428;48.732;9.148;2023-05-16T14:50:41;1.60;;;1.50;;
4827;SDS011;2428;48.732;9.148;2023-05-16T14:53:07;1.90;;;1.63;;
4827;SDS011;2428;48.732;9.148;2023-05-16T14:55:33;3.73;;;1.83;;
4827;SDS011;2428;48.732;9.148;2023-05-16T14:57:58;1.67;;;1.57;;
4827;SDS011;2428;48.732;9.148;2023-05-16T15:00:24;1.60;;;1.50;;
4827;SDS011;2428;48.732;9.148;2023-05-16T15:02:50;1.40;;;1.30;;
4827;SDS011;2428;48.732;9.148;2023-05-16T15:05:16;1.87;;;1.77;;
4827;SDS011;2428;48.732;9.148;2023-05-16T15:07:42;1.50;;;1.40;;
4827;SDS011;2428;48.732;9.148;2023-05-16T15:10:08;1.70;;;1.23;;
4827;SDS011;2428;48.732;9.148;2023-05-16T15:12:34;1.77;;;1.67;;
4827;SDS011;2428;48.732;9.148;2023-05-16T15:15:00;1.73;;;1.60;;
4827;SDS011;2428;48.732;9.148;2023-05-16T15:17:25;1.43;;;1.33;;
4827;SDS011;2428;48.732;9.148;2023-05-16T15:19:51;1.20;;;1.10;;
4827;SDS011;2428;48.732;9.148;2023-05-16T15:22:18;1.57;;;1.47;;
4827;SDS011;2428;48.732;9.148;2023-05-16T15:24:44;0.60;;;0.60;;
4827;SDS011;2428;48.732;9.148;2023-05-16T15:27:10;1.57;;;1.43;;
4827;SDS011;2428;48.732;9.148;2023-05-16T15:29:35;1.30;;;1.20;;
4827;SDS011;2428;48.732;9.148;2023-05-16T15:32:04;1.83;;;1.70;;
4827;SDS011;2428;48.732;9.148;2023-05-16T15:34:30;1.30;;;1.30;;
4827;SDS011;2428;48.732;9.148;2023-05-16T15:36:58;1.70;;;1.40;;
4827;SDS011;2428;48.732;9.148;2023-05-16T15:39:24;1.80;;;1.70;;
4827;SDS011;2428;48.732;9.148;2023-05-16T15:41:50;1.43;;;1.40;;